sensor_id;sensor_type;location;lat;lon;timestamp;temperature;humidity
1107;DHT22;540;49.448;8.612;2022-09-01T00:02:28;20.00;85.60
1107;DHT22;540;49.448;8.612;2022-09-01T00:04:56;19.60;84.80
1107;DHT22;540;49.448;8.612;2022-09-01T00:07:25;19.90;86.00
1107;DHT22;540;49.448;8.612;2022-09-01T00:09:56;19.90;86.80
1107;DHT22;540;49.448;8.612;2022-09-01T00:12:24;20.00;87.70
1107;DHT22;540;49.448;8.612;2022-09-01T00:14:53;19.60;86.90
1107;DHT22;540;49.448;8.612;2022-09-01T00:17:21;19.90;86.10
1107;DHT22;540;49.448;8.612;2022-09-01T00:19:49;19.80;86.90
1107;DHT22;540;49.448;8.612;2022-09-01T00:22:17;20.00;87.90
1107;DHT22;540;49.448;8.612;2022-09-01T00:24:45;19.90;89.50
1107;DHT22;540;49.448;8.612;2022-09-01T00:27:14;19.70;89.30
1107;DHT22;540;49.448;8.612;2022-09-01T00:29:43;19.70;88.80
1107;DHT22;540;49.448;8.612;2022-09-01T00:32:11;19.90;89.80
1107;DHT22;540;49.448;8.612;2022-09-01T00:34:39;19.90;90.10
1107;DHT22;540;49.448;8.612;2022-09-01T00:37:07;19.80;90.40
1107;DHT22;540;49.448;8.612;2022-09-01T00:39:35;19.90;90.50
1107;DHT22;540;49.448;8.612;2022-09-01T00:42:03;19.80;90.50
1107;DHT22;540;49.448;8.612;2022-09-01T00:44:32;19.90;90.30
1107;DHT22;540;49.448;8.612;2022-09-01T00:47:05;19.90;90.40
1107;DHT22;540;49.448;8.612;2022-09-01T00:49:37;19.90;90.40
1107;DHT22;540;49.448;8.612;2022-09-01T00:52:08;20.00;90.40
1107;DHT22;540;49.448;8.612;2022-09-01T00:54:41;20.00;90.50
1107;DHT22;540;49.448;8.612;2022-09-01T00:57:10;19.90;91.00
1107;DHT22;540;49.448;8.612;2022-09-01T00:59:45;20.00;91.10
1107;DHT22;540;49.448;8.612;2022-09-01T01:02:15;20.00;91.90
1107;DHT22;540;49.448;8.612;2022-09-01T01:04:43;20.00;92.40
1107;DHT22;540;49.448;8.612;2022-09-01T01:07:12;19.60;92.50
1107;DHT22;540;49.448;8.612;2022-09-01T01:09:43;19.60;93.60
1107;DHT22;540;49.448;8.612;2022-09-01T01:12:11;19.80;93.70
1107;DHT22;540;49.448;8.612;2022-09-01T01:14:46;19.60;93.30
1107;DHT22;540;49.448;8.612;2022-09-01T01:17:16;19.70;93.60
1107;DHT22;540;49.448;8.612;2022-09-01T01:19:46;19.80;93.90
1107;DHT22;540;49.448;8.612;2022-09-01T01:22:40;19.70;94.50
1107;DHT22;540;49.448;8.612;2022-09-01T01:25:32;19.70;94.40
1107;DHT22;540;49.448;8.612;2022-09-01T01:28:06;19.80;94.50
1107;DHT22;540;49.448;8.612;2022-09-01T01:30:34;19.30;94.10
1107;DHT22;540;49.448;8.612;2022-09-01T01:33:03;19.70;94.20
1107;DHT22;540;49.448;8.612;2022-09-01T01:35:31;19.50;94.10
1107;DHT22;540;49.448;8.612;2022-09-01T01:38:02;19.70;94.50
1107;DHT22;540;49.448;8.612;2022-09-01T01:40:35;19.60;94.00
1107;DHT22;540;49.448;8.612;2022-09-01T01:43:04;19.80;94.50
1107;DHT22;540;49.448;8.612;2022-09-01T01:45:32;19.10;93.90
1107;DHT22;540;49.448;8.612;2022-09-01T01:48:01;19.40;94.40
1107;DHT22;540;49.448;8.612;2022-09-01T01:50:32;19.60;94.40
1107;DHT22;540;49.448;8.612;2022-09-01T01:53:03;19.60;94.30
1107;DHT22;540;49.448;8.612;2022-09-01T01:55:39;19.60;94.20
1107;DHT22;540;49.448;8.612;2022-09-01T01:58:07;19.40;94.00
1107;DHT22;540;49.448;8.612;2022-09-01T02:00:38;19.30;94.10
1107;DHT22;540;49.448;8.612;2022-09-01T02:03:08;19.50;94.10
1107;DHT22;540;49.448;8.612;2022-09-01T02:05:38;19.60;94.10
1107;DHT22;540;49.448;8.612;2022-09-01T02:08:08;19.60;94.40
1107;DHT22;540;49.448;8.612;2022-09-01T02:10:40;19.40;94.50
1107;DHT22;540;49.448;8.612;2022-09-01T02:13:11;19.50;94.70
1107;DHT22;540;49.448;8.612;2022-09-01T02:15:45;19.20;94.80
1107;DHT22;540;49.448;8.612;2022-09-01T02:18:15;19.20;95.00
1107;DHT22;540;49.448;8.612;2022-09-01T02:20:44;19.10;95.40
1107;DHT22;540;49.448;8.612;2022-09-01T02:23:13;19.20;95.90
1107;DHT22;540;49.448;8.612;2022-09-01T02:25:46;19.20;96.40
1107;DHT22;540;49.448;8.612;2022-09-01T02:28:36;19.10;96.70
1107;DHT22;540;49.448;8.612;2022-09-01T02:31:05;19.20;97.10
1107;DHT22;540;49.448;8.612;2022-09-01T02:33:35;19.20;96.10
1107;DHT22;540;49.448;8.612;2022-09-01T02:36:05;19.10;96.00
1107;DHT22;540;49.448;8.612;2022-09-01T02:38:33;19.30;95.60
1107;DHT22;540;49.448;8.612;2022-09-01T02:41:06;19.30;95.20
1107;DHT22;540;49.448;8.612;2022-09-01T02:43:33;19.30;95.30
1107;DHT22;540;49.448;8.612;2022-09-01T02:46:03;19.10;96.00
1107;DHT22;540;49.448;8.612;2022-09-01T02:48:35;19.40;95.70
1107;DHT22;540;49.448;8.612;2022-09-01T02:51:06;19.40;96.00
1107;DHT22;540;49.448;8.612;2022-09-01T02:53:35;18.90;96.10
1107;DHT22;540;49.448;8.612;2022-09-01T02:56:08;19.00;96.40
1107;DHT22;540;49.448;8.612;2022-09-01T02:58:41;19.00;97.10
1107;DHT22;540;49.448;8.612;2022-09-01T03:01:14;18.80;97.30
1107;DHT22;540;49.448;8.612;2022-09-01T03:03:46;18.80;97.90
1107;DHT22;540;49.448;8.612;2022-09-01T03:06:15;18.80;97.80
1107;DHT22;540;49.448;8.612;2022-09-01T03:08:45;18.90;97.80
1107;DHT22;540;49.448;8.612;2022-09-01T03:11:14;18.70;98.10
1107;DHT22;540;49.448;8.612;2022-09-01T03:13:42;18.80;98.30
1107;DHT22;540;49.448;8.612;2022-09-01T03:16:10;18.70;98.20
1107;DHT22;540;49.448;8.612;2022-09-01T03:18:39;18.90;98.50
1107;DHT22;540;49.448;8.612;2022-09-01T03:21:09;19.00;97.80
1107;DHT22;540;49.448;8.612;2022-09-01T03:23:41;18.90;97.80
1107;DHT22;540;49.448;8.612;2022-09-01T03:26:09;19.00;98.00
1107;DHT22;540;49.448;8.612;2022-09-01T03:28:38;19.00;98.10
1107;DHT22;540;49.448;8.612;2022-09-01T03:31:06;18.60;97.90
1107;DHT22;540;49.448;8.612;2022-09-01T03:33:34;18.80;98.60
1107;DHT22;540;49.448;8.612;2022-09-01T03:36:03;18.50;98.60
1107;DHT22;540;49.448;8.612;2022-09-01T03:38:40;18.80;99.60
1107;DHT22;540;49.448;8.612;2022-09-01T03:41:09;18.60;99.00
1107;DHT22;540;49.448;8.612;2022-09-01T03:43:40;18.50;99.30
1107;DHT22;540;49.448;8.612;2022-09-01T03:46:14;18.70;99.70
1107;DHT22;540;49.448;8.612;2022-09-01T03:48:46;18.50;99.80
1107;DHT22;540;49.448;8.612;2022-09-01T03:51:17;18.40;99.40
1107;DHT22;540;49.448;8.612;2022-09-01T03:53:46;18.20;99.10
1107;DHT22;540;49.448;8.612;2022-09-01T03:56:14;18.60;99.40
1107;DHT22;540;49.448;8.612;2022-09-01T03:58:43;18.20;99.20
1107;DHT22;540;49.448;8.612;2022-09-01T04:01:13;18.50;99.60
1107;DHT22;540;49.448;8.612;2022-09-01T04:03:42;18.60;99.90
1107;DHT22;540;49.448;8.612;2022-09-01T04:06:15;18.40;99.90
1107;DHT22;540;49.448;8.612;2022-09-01T04:08:46;18.80;99.90
1107;DHT22;540;49.448;8.612;2022-09-01T04:11:16;18.50;99.50
1107;DHT22;540;49.448;8.612;2022-09-01T04:13:45;18.40;99.40
1107;DHT22;540;49.448;8.612;2022-09-01T04:16:18;18.80;99.00
1107;DHT22;540;49.448;8.612;2022-09-01T04:19:00;18.80;99.30
1107;DHT22;540;49.448;8.612;2022-09-01T04:21:34;18.50;99.30
1107;DHT22;540;49.448;8.612;2022-09-01T04:24:04;18.30;98.90
1107;DHT22;540;49.448;8.612;2022-09-01T04:26:31;18.50;99.90
1107;DHT22;540;49.448;8.612;2022-09-01T04:29:00;18.50;99.90
1107;DHT22;540;49.448;8.612;2022-09-01T04:31:28;18.50;99.90
1107;DHT22;540;49.448;8.612;2022-09-01T04:33:57;18.10;99.90
1107;DHT22;540;49.448;8.612;2022-09-01T04:36:27;18.50;99.90
1107;DHT22;540;49.448;8.612;2022-09-01T04:38:57;18.40;99.90
1107;DHT22;540;49.448;8.612;2022-09-01T04:41:27;18.30;99.90
1107;DHT22;540;49.448;8.612;2022-09-01T04:43:58;18.50;99.90
1107;DHT22;540;49.448;8.612;2022-09-01T04:46:33;18.50;99.90
1107;DHT22;540;49.448;8.612;2022-09-01T04:49:03;18.40;99.90
1107;DHT22;540;49.448;8.612;2022-09-01T04:51:39;18.50;99.90
1107;DHT22;540;49.448;8.612;2022-09-01T04:54:07;18.50;99.90
1107;DHT22;540;49.448;8.612;2022-09-01T04:56:38;18.20;99.90
1107;DHT22;540;49.448;8.612;2022-09-01T04:59:06;18.20;99.90
1107;DHT22;540;49.448;8.612;2022-09-01T05:01:39;18.30;99.90
1107;DHT22;540;49.448;8.612;2022-09-01T05:04:11;18.60;99.90
1107;DHT22;540;49.448;8.612;2022-09-01T05:06:41;18.50;99.90
1107;DHT22;540;49.448;8.612;2022-09-01T05:09:09;18.40;99.90
1107;DHT22;540;49.448;8.612;2022-09-01T05:11:38;18.60;99.90
1107;DHT22;540;49.448;8.612;2022-09-01T05:14:06;18.10;99.90
1107;DHT22;540;49.448;8.612;2022-09-01T05:16:34;18.40;99.90
1107;DHT22;540;49.448;8.612;2022-09-01T05:19:08;18.50;99.90
1107;DHT22;540;49.448;8.612;2022-09-01T05:21:41;18.30;99.90
1107;DHT22;540;49.448;8.612;2022-09-01T05:24:13;18.20;99.90
1107;DHT22;540;49.448;8.612;2022-09-01T05:26:42;18.70;99.90
1107;DHT22;540;49.448;8.612;2022-09-01T05:29:13;18.30;99.90
1107;DHT22;540;49.448;8.612;2022-09-01T05:31:44;18.40;99.90
1107;DHT22;540;49.448;8.612;2022-09-01T05:34:17;18.90;99.90
1107;DHT22;540;49.448;8.612;2022-09-01T05:36:53;18.90;99.90
1107;DHT22;540;49.448;8.612;2022-09-01T05:39:21;18.60;99.90
1107;DHT22;540;49.448;8.612;2022-09-01T05:41:49;19.20;99.90
1107;DHT22;540;49.448;8.612;2022-09-01T05:44:21;19.00;99.90
1107;DHT22;540;49.448;8.612;2022-09-01T05:46:50;18.90;99.90
1107;DHT22;540;49.448;8.612;2022-09-01T05:49:20;19.00;99.30
1107;DHT22;540;49.448;8.612;2022-09-01T05:51:50;19.30;99.20
1107;DHT22;540;49.448;8.612;2022-09-01T05:54:21;18.90;98.30
1107;DHT22;540;49.448;8.612;2022-09-01T05:56:50;19.00;99.10
1107;DHT22;540;49.448;8.612;2022-09-01T05:59:19;19.30;99.10
1107;DHT22;540;49.448;8.612;2022-09-01T06:01:51;19.40;98.40
1107;DHT22;540;49.448;8.612;2022-09-01T06:04:22;19.30;98.10
1107;DHT22;540;49.448;8.612;2022-09-01T06:06:52;19.40;97.90
1107;DHT22;540;49.448;8.612;2022-09-01T06:09:32;19.00;98.00
1107;DHT22;540;49.448;8.612;2022-09-01T06:11:59;19.50;97.80
1107;DHT22;540;49.448;8.612;2022-09-01T06:14:28;19.50;97.00
1107;DHT22;540;49.448;8.612;2022-09-01T06:16:56;19.60;97.30
1107;DHT22;540;49.448;8.612;2022-09-01T06:19:25;19.70;96.40
1107;DHT22;540;49.448;8.612;2022-09-01T06:21:54;19.90;95.70
1107;DHT22;540;49.448;8.612;2022-09-01T06:24:22;20.00;95.30
1107;DHT22;540;49.448;8.612;2022-09-01T06:26:50;20.10;95.10
1107;DHT22;540;49.448;8.612;2022-09-01T06:29:19;20.10;95.20
1107;DHT22;540;49.448;8.612;2022-09-01T06:31:47;20.10;94.90
1107;DHT22;540;49.448;8.612;2022-09-01T06:34:18;20.40;94.60
1107;DHT22;540;49.448;8.612;2022-09-01T06:36:48;20.50;94.20
1107;DHT22;540;49.448;8.612;2022-09-01T06:39:17;20.70;94.30
1107;DHT22;540;49.448;8.612;2022-09-01T06:41:46;21.00;93.20
1107;DHT22;540;49.448;8.612;2022-09-01T06:44:19;21.70;91.00
1107;DHT22;540;49.448;8.612;2022-09-01T06:46:49;22.20;86.20
1107;DHT22;540;49.448;8.612;2022-09-01T06:49:17;22.30;84.30
1107;DHT22;540;49.448;8.612;2022-09-01T06:51:48;22.30;83.00
1107;DHT22;540;49.448;8.612;2022-09-01T06:54:18;22.20;83.60
1107;DHT22;540;49.448;8.612;2022-09-01T06:56:47;22.00;85.00
1107;DHT22;540;49.448;8.612;2022-09-01T06:59:18;22.10;85.00
1107;DHT22;540;49.448;8.612;2022-09-01T07:01:46;22.10;84.10
1107;DHT22;540;49.448;8.612;2022-09-01T07:04:18;22.20;83.70
1107;DHT22;540;49.448;8.612;2022-09-01T07:06:48;22.90;80.50
1107;DHT22;540;49.448;8.612;2022-09-01T07:09:37;23.20;77.60
1107;DHT22;540;49.448;8.612;2022-09-01T07:12:15;23.20;76.10
1107;DHT22;540;49.448;8.612;2022-09-01T07:14:53;23.00;75.70
1107;DHT22;540;49.448;8.612;2022-09-01T07:17:47;23.20;75.00
1107;DHT22;540;49.448;8.612;2022-09-01T07:20:17;23.20;74.90
1107;DHT22;540;49.448;8.612;2022-09-01T07:22:52;23.10;75.00
1107;DHT22;540;49.448;8.612;2022-09-01T07:25:38;22.90;75.50
1107;DHT22;540;49.448;8.612;2022-09-01T07:28:27;22.80;76.30
1107;DHT22;540;49.448;8.612;2022-09-01T07:31:06;22.90;77.30
1107;DHT22;540;49.448;8.612;2022-09-01T07:33:57;23.00;76.60
1107;DHT22;540;49.448;8.612;2022-09-01T07:36:46;22.90;76.70
1107;DHT22;540;49.448;8.612;2022-09-01T07:39:36;22.90;76.80
1107;DHT22;540;49.448;8.612;2022-09-01T07:42:21;22.90;76.10
1107;DHT22;540;49.448;8.612;2022-09-01T07:45:10;23.00;76.30
1107;DHT22;540;49.448;8.612;2022-09-01T07:47:55;23.90;74.40
1107;DHT22;540;49.448;8.612;2022-09-01T07:50:25;24.60;69.00
1107;DHT22;540;49.448;8.612;2022-09-01T07:53:17;24.60;67.80
1107;DHT22;540;49.448;8.612;2022-09-01T07:55:46;25.40;65.30
1107;DHT22;540;49.448;8.612;2022-09-01T07:58:17;26.30;62.00
1107;DHT22;540;49.448;8.612;2022-09-01T08:00:45;26.90;58.10
1107;DHT22;540;49.448;8.612;2022-09-01T08:03:16;26.90;57.70
1107;DHT22;540;49.448;8.612;2022-09-01T08:05:44;27.70;56.50
1107;DHT22;540;49.448;8.612;2022-09-01T08:08:13;29.00;53.60
1107;DHT22;540;49.448;8.612;2022-09-01T08:10:46;30.30;50.30
1107;DHT22;540;49.448;8.612;2022-09-01T08:13:16;31.60;46.40
1107;DHT22;540;49.448;8.612;2022-09-01T08:15:48;31.90;44.00
1107;DHT22;540;49.448;8.612;2022-09-01T08:18:36;31.70;44.00
1107;DHT22;540;49.448;8.612;2022-09-01T08:21:19;31.20;43.90
1107;DHT22;540;49.448;8.612;2022-09-01T08:23:49;30.50;45.10
1107;DHT22;540;49.448;8.612;2022-09-01T08:26:22;29.30;47.00
1107;DHT22;540;49.448;8.612;2022-09-01T08:28:51;28.40;49.70
1107;DHT22;540;49.448;8.612;2022-09-01T08:31:22;28.10;50.30
1107;DHT22;540;49.448;8.612;2022-09-01T08:33:55;27.70;51.40
1107;DHT22;540;49.448;8.612;2022-09-01T08:36:23;27.20;52.80
1107;DHT22;540;49.448;8.612;2022-09-01T08:38:52;26.80;53.80
1107;DHT22;540;49.448;8.612;2022-09-01T08:41:36;26.40;54.80
1107;DHT22;540;49.448;8.612;2022-09-01T08:44:19;25.90;56.10
1107;DHT22;540;49.448;8.612;2022-09-01T08:46:53;26.40;56.10
1107;DHT22;540;49.448;8.612;2022-09-01T08:49:25;27.20;54.20
1107;DHT22;540;49.448;8.612;2022-09-01T08:51:59;27.60;51.60
1107;DHT22;540;49.448;8.612;2022-09-01T08:54:38;27.60;51.20
1107;DHT22;540;49.448;8.612;2022-09-01T08:57:15;27.60;50.50
1107;DHT22;540;49.448;8.612;2022-09-01T08:59:44;26.90;50.70
1107;DHT22;540;49.448;8.612;2022-09-01T09:02:25;26.40;52.50
1107;DHT22;540;49.448;8.612;2022-09-01T09:04:59;26.20;53.30
1107;DHT22;540;49.448;8.612;2022-09-01T09:07:57;26.90;52.20
1107;DHT22;540;49.448;8.612;2022-09-01T09:10:38;27.90;48.90
1107;DHT22;540;49.448;8.612;2022-09-01T09:13:16;28.00;48.70
1107;DHT22;540;49.448;8.612;2022-09-01T09:15:51;28.00;48.50
1107;DHT22;540;49.448;8.612;2022-09-01T09:18:38;27.60;49.60
1107;DHT22;540;49.448;8.612;2022-09-01T09:21:24;27.60;50.00
1107;DHT22;540;49.448;8.612;2022-09-01T09:23:59;27.90;49.40
1107;DHT22;540;49.448;8.612;2022-09-01T09:26:30;28.00;49.00
1107;DHT22;540;49.448;8.612;2022-09-01T09:29:15;29.20;46.80
1107;DHT22;540;49.448;8.612;2022-09-01T09:31:43;30.50;43.20
1107;DHT22;540;49.448;8.612;2022-09-01T09:34:18;31.30;41.00
1107;DHT22;540;49.448;8.612;2022-09-01T09:36:55;30.60;41.30
1107;DHT22;540;49.448;8.612;2022-09-01T09:39:23;29.90;43.60
1107;DHT22;540;49.448;8.612;2022-09-01T09:42:04;29.20;43.90
1107;DHT22;540;49.448;8.612;2022-09-01T09:44:41;29.80;43.40
1107;DHT22;540;49.448;8.612;2022-09-01T09:47:12;30.80;41.80
1107;DHT22;540;49.448;8.612;2022-09-01T09:50:19;30.70;40.70
1107;DHT22;540;49.448;8.612;2022-09-01T09:52:49;30.50;41.10
1107;DHT22;540;49.448;8.612;2022-09-01T09:55:21;30.30;41.70
1107;DHT22;540;49.448;8.612;2022-09-01T09:57:53;30.90;40.20
1107;DHT22;540;49.448;8.612;2022-09-01T10:00:25;31.00;39.20
1107;DHT22;540;49.448;8.612;2022-09-01T10:02:56;30.80;39.80
1107;DHT22;540;49.448;8.612;2022-09-01T10:05:38;30.10;40.80
1107;DHT22;540;49.448;8.612;2022-09-01T10:08:08;30.10;41.10
1107;DHT22;540;49.448;8.612;2022-09-01T10:10:40;30.10;41.50
1107;DHT22;540;49.448;8.612;2022-09-01T10:13:11;29.00;42.50
1107;DHT22;540;49.448;8.612;2022-09-01T10:15:45;27.90;44.90
1107;DHT22;540;49.448;8.612;2022-09-01T10:18:18;27.30;46.70
1107;DHT22;540;49.448;8.612;2022-09-01T10:20:57;26.90;47.90
1107;DHT22;540;49.448;8.612;2022-09-01T10:23:28;26.80;48.50
1107;DHT22;540;49.448;8.612;2022-09-01T10:26:01;26.90;48.50
1107;DHT22;540;49.448;8.612;2022-09-01T10:28:38;27.80;46.90
1107;DHT22;540;49.448;8.612;2022-09-01T10:31:18;28.50;45.50
1107;DHT22;540;49.448;8.612;2022-09-01T10:33:47;29.00;44.50
1107;DHT22;540;49.448;8.612;2022-09-01T10:36:16;29.00;44.10
1107;DHT22;540;49.448;8.612;2022-09-01T10:38:45;29.00;43.80
1107;DHT22;540;49.448;8.612;2022-09-01T10:41:42;28.40;44.70
1107;DHT22;540;49.448;8.612;2022-09-01T10:44:17;28.20;45.30
1107;DHT22;540;49.448;8.612;2022-09-01T10:46:48;28.30;45.50
1107;DHT22;540;49.448;8.612;2022-09-01T10:52:56;28.70;44.60
1107;DHT22;540;49.448;8.612;2022-09-01T10:58:29;29.60;41.90
1107;DHT22;540;49.448;8.612;2022-09-01T11:05:14;29.60;41.90
1107;DHT22;540;49.448;8.612;2022-09-01T11:07:42;29.50;42.40
1107;DHT22;540;49.448;8.612;2022-09-01T11:10:51;29.20;42.50
1107;DHT22;540;49.448;8.612;2022-09-01T11:13:33;28.70;43.80
1107;DHT22;540;49.448;8.612;2022-09-01T11:16:23;28.30;44.30
1107;DHT22;540;49.448;8.612;2022-09-01T11:19:28;28.30;44.30
1107;DHT22;540;49.448;8.612;2022-09-01T11:22:27;28.70;43.80
1107;DHT22;540;49.448;8.612;2022-09-01T11:25:11;29.10;42.50
1107;DHT22;540;49.448;8.612;2022-09-01T11:28:10;29.50;42.30
1107;DHT22;540;49.448;8.612;2022-09-01T11:31:01;29.30;41.90
1107;DHT22;540;49.448;8.612;2022-09-01T11:34:02;28.60;42.70
1107;DHT22;540;49.448;8.612;2022-09-01T11:36:34;28.40;43.90
1107;DHT22;540;49.448;8.612;2022-09-01T11:39:08;28.80;44.00
1107;DHT22;540;49.448;8.612;2022-09-01T11:41:52;29.20;43.00
1107;DHT22;540;49.448;8.612;2022-09-01T11:44:30;29.20;43.00
1107;DHT22;540;49.448;8.612;2022-09-01T11:47:03;29.20;42.40
1107;DHT22;540;49.448;8.612;2022-09-01T11:49:38;28.60;42.50
1107;DHT22;540;49.448;8.612;2022-09-01T11:52:13;28.60;43.10
1107;DHT22;540;49.448;8.612;2022-09-01T11:54:44;28.70;43.50
1107;DHT22;540;49.448;8.612;2022-09-01T11:57:17;28.80;43.40
1107;DHT22;540;49.448;8.612;2022-09-01T11:59:45;28.90;42.80
1107;DHT22;540;49.448;8.612;2022-09-01T12:02:17;28.60;42.70
1107;DHT22;540;49.448;8.612;2022-09-01T12:04:45;28.50;43.50
1107;DHT22;540;49.448;8.612;2022-09-01T12:07:24;28.30;43.80
1107;DHT22;540;49.448;8.612;2022-09-01T12:09:54;28.50;44.40
1107;DHT22;540;49.448;8.612;2022-09-01T12:12:31;29.10;43.60
1107;DHT22;540;49.448;8.612;2022-09-01T12:15:02;29.30;42.30
1107;DHT22;540;49.448;8.612;2022-09-01T12:17:32;29.00;41.30
1107;DHT22;540;49.448;8.612;2022-09-01T12:20:25;28.70;42.50
1107;DHT22;540;49.448;8.612;2022-09-01T12:22:55;28.80;42.80
1107;DHT22;540;49.448;8.612;2022-09-01T12:25:27;28.90;42.20
1107;DHT22;540;49.448;8.612;2022-09-01T12:27:58;28.80;42.80
1107;DHT22;540;49.448;8.612;2022-09-01T12:30:26;28.80;43.50
1107;DHT22;540;49.448;8.612;2022-09-01T12:32:55;28.60;42.20
1107;DHT22;540;49.448;8.612;2022-09-01T12:35:44;28.70;41.70
1107;DHT22;540;49.448;8.612;2022-09-01T12:38:21;28.80;41.30
1107;DHT22;540;49.448;8.612;2022-09-01T12:40:52;29.10;40.20
1107;DHT22;540;49.448;8.612;2022-09-01T12:43:32;29.40;39.70
1107;DHT22;540;49.448;8.612;2022-09-01T12:46:00;29.40;40.10
1107;DHT22;540;49.448;8.612;2022-09-01T12:48:31;29.40;40.90
1107;DHT22;540;49.448;8.612;2022-09-01T12:51:00;29.40;40.60
1107;DHT22;540;49.448;8.612;2022-09-01T12:53:31;28.80;41.40
1107;DHT22;540;49.448;8.612;2022-09-01T12:56:16;28.60;41.70
1107;DHT22;540;49.448;8.612;2022-09-01T12:58:48;27.80;42.50
1107;DHT22;540;49.448;8.612;2022-09-01T13:01:28;27.20;43.80
1107;DHT22;540;49.448;8.612;2022-09-01T13:06:55;27.20;44.80
1107;DHT22;540;49.448;8.612;2022-09-01T13:09:23;27.30;44.60
1107;DHT22;540;49.448;8.612;2022-09-01T13:11:52;27.20;44.80
1107;DHT22;540;49.448;8.612;2022-09-01T13:14:36;27.00;45.40
1107;DHT22;540;49.448;8.612;2022-09-01T13:17:04;27.30;45.80
1107;DHT22;540;49.448;8.612;2022-09-01T13:19:40;27.50;44.80
1107;DHT22;540;49.448;8.612;2022-09-01T13:22:08;27.60;44.10
1107;DHT22;540;49.448;8.612;2022-09-01T13:24:36;27.40;43.70
1107;DHT22;540;49.448;8.612;2022-09-01T13:27:06;27.30;44.10
1107;DHT22;540;49.448;8.612;2022-09-01T13:29:52;27.10;44.70
1107;DHT22;540;49.448;8.612;2022-09-01T13:32:21;26.90;44.10
1107;DHT22;540;49.448;8.612;2022-09-01T13:34:51;26.80;45.30
1107;DHT22;540;49.448;8.612;2022-09-01T13:37:20;26.80;45.50
1107;DHT22;540;49.448;8.612;2022-09-01T13:39:48;26.70;45.50
1107;DHT22;540;49.448;8.612;2022-09-01T13:42:17;26.50;45.80
1107;DHT22;540;49.448;8.612;2022-09-01T13:44:45;26.60;45.90
1107;DHT22;540;49.448;8.612;2022-09-01T13:47:16;26.90;45.80
1107;DHT22;540;49.448;8.612;2022-09-01T13:49:59;27.40;45.60
1107;DHT22;540;49.448;8.612;2022-09-01T13:52:34;27.60;44.30
1107;DHT22;540;49.448;8.612;2022-09-01T13:55:03;27.70;43.80
1107;DHT22;540;49.448;8.612;2022-09-01T13:57:32;27.80;43.50
1107;DHT22;540;49.448;8.612;2022-09-01T14:00:05;27.40;44.80
1107;DHT22;540;49.448;8.612;2022-09-01T14:02:33;27.00;45.60
1107;DHT22;540;49.448;8.612;2022-09-01T14:05:03;26.90;46.30
1107;DHT22;540;49.448;8.612;2022-09-01T14:07:30;26.80;45.40
1107;DHT22;540;49.448;8.612;2022-09-01T14:09:58;26.90;44.60
1107;DHT22;540;49.448;8.612;2022-09-01T14:12:27;27.00;44.70
1107;DHT22;540;49.448;8.612;2022-09-01T14:14:57;27.00;43.20
1107;DHT22;540;49.448;8.612;2022-09-01T14:17:46;27.20;43.90
1107;DHT22;540;49.448;8.612;2022-09-01T14:20:17;27.20;43.50
1107;DHT22;540;49.448;8.612;2022-09-01T14:22:45;27.30;42.90
1107;DHT22;540;49.448;8.612;2022-09-01T14:25:14;27.30;42.60
1107;DHT22;540;49.448;8.612;2022-09-01T14:27:42;27.20;42.50
1107;DHT22;540;49.448;8.612;2022-09-01T14:30:16;27.00;42.60
1107;DHT22;540;49.448;8.612;2022-09-01T14:32:45;27.00;42.70
1107;DHT22;540;49.448;8.612;2022-09-01T14:35:13;27.00;43.20
1107;DHT22;540;49.448;8.612;2022-09-01T14:37:41;27.00;43.60
1107;DHT22;540;49.448;8.612;2022-09-01T14:40:13;27.30;43.40
1107;DHT22;540;49.448;8.612;2022-09-01T14:42:43;27.30;43.40
1107;DHT22;540;49.448;8.612;2022-09-01T14:45:16;27.50;43.30
1107;DHT22;540;49.448;8.612;2022-09-01T14:47:45;27.50;43.30
1107;DHT22;540;49.448;8.612;2022-09-01T14:50:14;27.60;43.50
1107;DHT22;540;49.448;8.612;2022-09-01T14:52:50;27.70;43.60
1107;DHT22;540;49.448;8.612;2022-09-01T14:55:20;27.80;43.80
1107;DHT22;540;49.448;8.612;2022-09-01T14:57:48;27.80;43.70
1107;DHT22;540;49.448;8.612;2022-09-01T15:00:18;27.70;43.90
1107;DHT22;540;49.448;8.612;2022-09-01T15:02:46;27.60;44.30
1107;DHT22;540;49.448;8.612;2022-09-01T15:05:15;27.40;44.00
1107;DHT22;540;49.448;8.612;2022-09-01T15:07:43;27.30;43.50
1107;DHT22;540;49.448;8.612;2022-09-01T15:10:13;27.00;43.10
1107;DHT22;540;49.448;8.612;2022-09-01T15:12:50;26.90;44.20
1107;DHT22;540;49.448;8.612;2022-09-01T15:15:20;26.70;44.70
1107;DHT22;540;49.448;8.612;2022-09-01T15:17:48;26.60;45.00
1107;DHT22;540;49.448;8.612;2022-09-01T15:20:16;26.40;44.90
1107;DHT22;540;49.448;8.612;2022-09-01T15:23:02;26.30;46.00
1107;DHT22;540;49.448;8.612;2022-09-01T15:25:30;26.20;47.00
1107;DHT22;540;49.448;8.612;2022-09-01T15:27:58;26.10;47.30
1107;DHT22;540;49.448;8.612;2022-09-01T15:30:27;26.00;47.00
1107;DHT22;540;49.448;8.612;2022-09-01T15:32:55;26.00;46.70
1107;DHT22;540;49.448;8.612;2022-09-01T15:35:23;26.00;46.90
1107;DHT22;540;49.448;8.612;2022-09-01T15:37:51;26.00;47.20
1107;DHT22;540;49.448;8.612;2022-09-01T15:40:19;25.80;47.10
1107;DHT22;540;49.448;8.612;2022-09-01T15:42:47;25.80;47.40
1107;DHT22;540;49.448;8.612;2022-09-01T15:45:17;25.80;47.80
1107;DHT22;540;49.448;8.612;2022-09-01T15:47:46;25.80;47.60
1107;DHT22;540;49.448;8.612;2022-09-01T15:50:18;25.70;47.60
1107;DHT22;540;49.448;8.612;2022-09-01T15:52:50;25.60;47.60
1107;DHT22;540;49.448;8.612;2022-09-01T15:55:20;25.70;47.60
1107;DHT22;540;49.448;8.612;2022-09-01T15:57:48;25.70;47.90
1107;DHT22;540;49.448;8.612;2022-09-01T16:00:24;25.60;48.00
1107;DHT22;540;49.448;8.612;2022-09-01T16:02:54;25.60;47.80
1107;DHT22;540;49.448;8.612;2022-09-01T16:05:27;25.60;48.30
1107;DHT22;540;49.448;8.612;2022-09-01T16:07:55;25.50;47.80
1107;DHT22;540;49.448;8.612;2022-09-01T16:10:23;25.50;48.20
1107;DHT22;540;49.448;8.612;2022-09-01T16:12:50;25.50;48.80
1107;DHT22;540;49.448;8.612;2022-09-01T16:15:21;25.50;48.90
1107;DHT22;540;49.448;8.612;2022-09-01T16:18:02;25.40;48.60
1107;DHT22;540;49.448;8.612;2022-09-01T16:20:35;25.30;48.20
1107;DHT22;540;49.448;8.612;2022-09-01T16:23:12;25.30;48.50
1107;DHT22;540;49.448;8.612;2022-09-01T16:25:43;25.20;48.20
1107;DHT22;540;49.448;8.612;2022-09-01T16:28:20;25.20;47.60
1107;DHT22;540;49.448;8.612;2022-09-01T16:30:50;25.10;47.30
1107;DHT22;540;49.448;8.612;2022-09-01T16:33:20;25.10;47.10
1107;DHT22;540;49.448;8.612;2022-09-01T16:35:57;25.20;47.10
1107;DHT22;540;49.448;8.612;2022-09-01T16:38:35;25.20;47.20
1107;DHT22;540;49.448;8.612;2022-09-01T16:41:09;25.20;47.20
1107;DHT22;540;49.448;8.612;2022-09-01T16:43:43;25.20;47.20
1107;DHT22;540;49.448;8.612;2022-09-01T16:46:20;25.20;47.40
1107;DHT22;540;49.448;8.612;2022-09-01T16:48:57;25.20;47.60
1107;DHT22;540;49.448;8.612;2022-09-01T16:51:28;25.20;47.70
1107;DHT22;540;49.448;8.612;2022-09-01T16:54:12;25.20;47.80
1107;DHT22;540;49.448;8.612;2022-09-01T16:56:51;25.10;48.10
1107;DHT22;540;49.448;8.612;2022-09-01T16:59:31;25.00;48.20
1107;DHT22;540;49.448;8.612;2022-09-01T17:02:11;24.90;48.10
1107;DHT22;540;49.448;8.612;2022-09-01T17:04:46;24.90;48.60
1107;DHT22;540;49.448;8.612;2022-09-01T17:07:21;24.70;48.50
1107;DHT22;540;49.448;8.612;2022-09-01T17:10:01;24.60;48.50